sensor_id;sensor_type;location;lat;lon;timestamp;pressure;altitude;pressure_sealevel;temperature;humidity
36788;BME280;22738;45.560;9.434;2022-09-12T00:05:52;99824.50;;;19.70;100.00
36788;BME280;22738;45.560;9.434;2022-09-12T00:12:33;99835.19;;;19.69;100.00
36788;BME280;22738;45.560;9.434;2022-09-12T00:19:14;99832.66;;;19.59;100.00
36788;BME280;22738;45.560;9.434;2022-09-12T00:25:55;99833.28;;;19.53;100.00
36788;BME280;22738;45.560;9.434;2022-09-12T00:32:36;99831.63;;;19.52;100.00
36788;BME280;22738;45.560;9.434;2022-09-12T00:39:18;99838.44;;;19.37;100.00
36788;BME280;22738;45.560;9.434;2022-09-12T00:46:04;99835.13;;;19.35;100.00
36788;BME280;22738;45.560;9.434;2022-09-12T00:52:57;99825.84;;;19.31;100.00
36788;BME280;22738;45.560;9.434;2022-09-12T00:59:49;99817.63;;;19.26;100.00
36788;BME280;22738;45.560;9.434;2022-09-12T01:06:36;99822.88;;;19.26;100.00
36788;BME280;22738;45.560;9.434;2022-09-12T01:13:19;99824.63;;;19.35;100.00
36788;BME280;22738;45.560;9.434;2022-09-12T01:48:03;99815.53;;;19.12;100.00
36788;BME280;22738;45.560;9.434;2022-09-12T01:55:00;99817.41;;;19.02;100.00
36788;BME280;22738;45.560;9.434;2022-09-12T02:01:52;99820.03;;;19.02;100.00
36788;BME280;22738;45.560;9.434;2022-09-12T02:08:59;99816.00;;;18.90;100.00
36788;BME280;22738;45.560;9.434;2022-09-12T02:15:46;99814.63;;;18.86;100.00
36788;BME280;22738;45.560;9.434;2022-09-12T02:22:30;99805.59;;;18.80;100.00
36788;BME280;22738;45.560;9.434;2022-09-12T02:29:12;99806.53;;;18.79;100.00
36788;BME280;22738;45.560;9.434;2022-09-12T02:36:02;99805.03;;;18.77;100.00
36788;BME280;22738;45.560;9.434;2022-09-12T02:42:46;99796.50;;;18.75;100.00
36788;BME280;22738;45.560;9.434;2022-09-12T02:49:27;99797.16;;;18.77;100.00
36788;BME280;22738;45.560;9.434;2022-09-12T02:56:12;99805.50;;;18.72;100.00
36788;BME280;22738;45.560;9.434;2022-09-12T03:10:23;99800.56;;;18.69;100.00
36788;BME280;22738;45.560;9.434;2022-09-12T03:24:37;99799.56;;;18.52;100.00
36788;BME280;22738;45.560;9.434;2022-09-12T03:31:22;99796.56;;;18.47;100.00
36788;BME280;22738;45.560;9.434;2022-09-12T03:38:03;99799.03;;;18.49;100.00
36788;BME280;22738;45.560;9.434;2022-09-12T03:44:47;99796.13;;;18.42;100.00
36788;BME280;22738;45.560;9.434;2022-09-12T03:51:28;99793.00;;;18.39;100.00
36788;BME280;22738;45.560;9.434;2022-09-12T03:58:09;99797.34;;;18.30;100.00
36788;BME280;22738;45.560;9.434;2022-09-12T04:04:51;99803.03;;;18.26;100.00
36788;BME280;22738;45.560;9.434;2022-09-12T04:11:32;99797.22;;;18.22;100.00
36788;BME280;22738;45.560;9.434;2022-09-12T04:18:14;99804.16;;;18.23;100.00
36788;BME280;22738;45.560;9.434;2022-09-12T04:24:55;99808.97;;;18.28;100.00
36788;BME280;22738;45.560;9.434;2022-09-12T04:31:37;99812.31;;;18.20;100.00
36788;BME280;22738;45.560;9.434;2022-09-12T04:38:19;99811.34;;;18.21;100.00
36788;BME280;22738;45.560;9.434;2022-09-12T04:45:00;99815.47;;;18.24;100.00
36788;BME280;22738;45.560;9.434;2022-09-12T04:51:41;99820.47;;;18.17;100.00
36788;BME280;22738;45.560;9.434;2022-09-12T04:58:22;99823.41;;;18.14;100.00
36788;BME280;22738;45.560;9.434;2022-09-12T05:05:04;99824.50;;;18.12;100.00
36788;BME280;22738;45.560;9.434;2022-09-12T05:11:45;99829.56;;;18.23;100.00
36788;BME280;22738;45.560;9.434;2022-09-12T05:18:27;99830.91;;;18.27;100.00
36788;BME280;22738;45.560;9.434;2022-09-12T05:25:08;99842.31;;;18.45;100.00
36788;BME280;22738;45.560;9.434;2022-09-12T05:31:49;99839.47;;;18.56;100.00
36788;BME280;22738;45.560;9.434;2022-09-12T05:38:35;99848.06;;;18.76;100.00
36788;BME280;22738;45.560;9.434;2022-09-12T05:45:17;99848.78;;;18.86;100.00
36788;BME280;22738;45.560;9.434;2022-09-12T05:51:58;99861.13;;;19.03;100.00
36788;BME280;22738;45.560;9.434;2022-09-12T05:58:45;99863.56;;;19.22;100.00
36788;BME280;22738;45.560;9.434;2022-09-12T06:05:27;99863.47;;;19.49;100.00
36788;BME280;22738;45.560;9.434;2022-09-12T06:12:08;99855.13;;;19.79;100.00
36788;BME280;22738;45.560;9.434;2022-09-12T06:18:54;99865.53;;;20.15;100.00
36788;BME280;22738;45.560;9.434;2022-09-12T06:25:35;99863.69;;;20.49;100.00
36788;BME280;22738;45.560;9.434;2022-09-12T06:32:16;99858.00;;;20.78;100.00
36788;BME280;22738;45.560;9.434;2022-09-12T06:39:03;99857.91;;;21.44;100.00
36788;BME280;22738;45.560;9.434;2022-09-12T06:45:50;99864.31;;;27.60;100.00
36788;BME280;22738;45.560;9.434;2022-09-12T06:52:31;99862.72;;;31.18;68.13
36788;BME280;22738;45.560;9.434;2022-09-12T06:59:12;99877.16;;;31.28;61.42
36788;BME280;22738;45.560;9.434;2022-09-12T07:05:53;99882.34;;;31.76;51.66
36788;BME280;22738;45.560;9.434;2022-09-12T07:12:35;99890.16;;;33.20;48.02
36788;BME280;22738;45.560;9.434;2022-09-12T07:19:16;99886.56;;;34.89;45.46
36788;BME280;22738;45.560;9.434;2022-09-12T07:25:58;99885.31;;;34.97;42.04
36788;BME280;22738;45.560;9.434;2022-09-12T07:32:40;99890.47;;;36.51;38.07
36788;BME280;22738;45.560;9.434;2022-09-12T07:39:21;99897.00;;;36.85;40.51
36788;BME280;22738;45.560;9.434;2022-09-12T07:46:02;99897.06;;;37.70;35.68
36788;BME280;22738;45.560;9.434;2022-09-12T07:52:43;99902.47;;;37.96;34.52
36788;BME280;22738;45.560;9.434;2022-09-12T07:59:24;99898.59;;;38.17;33.45
36788;BME280;22738;45.560;9.434;2022-09-12T08:06:13;99886.28;;;37.30;34.53
36788;BME280;22738;45.560;9.434;2022-09-12T08:12:57;99891.19;;;35.16;37.02
36788;BME280;22738;45.560;9.434;2022-09-12T08:19:38;99891.47;;;33.34;41.50
36788;BME280;22738;45.560;9.434;2022-09-12T08:26:20;99890.28;;;31.94;51.66
36788;BME280;22738;45.560;9.434;2022-09-12T08:33:01;99891.09;;;31.60;59.25
36788;BME280;22738;45.560;9.434;2022-09-12T08:39:42;99893.75;;;30.48;59.73
36788;BME280;22738;45.560;9.434;2022-09-12T08:46:54;99898.88;;;30.31;68.09
36788;BME280;22738;45.560;9.434;2022-09-12T08:53:33;99886.63;;;30.05;67.52
36788;BME280;22738;45.560;9.434;2022-09-12T09:00:16;99900.09;;;29.92;69.14
36788;BME280;22738;45.560;9.434;2022-09-12T09:21:30;99896.66;;;30.10;74.30
36788;BME280;22738;45.560;9.434;2022-09-12T09:28:18;99903.56;;;29.75;72.59
36788;BME280;22738;45.560;9.434;2022-09-12T09:49:05;99890.03;;;29.20;84.34
36788;BME280;22738;45.560;9.434;2022-09-12T09:55:47;99884.41;;;29.28;75.68
36788;BME280;22738;45.560;9.434;2022-09-12T10:02:29;99876.44;;;29.22;80.44
36788;BME280;22738;45.560;9.434;2022-09-12T10:15:58;99864.50;;;29.98;80.11
36788;BME280;22738;45.560;9.434;2022-09-12T10:22:39;99870.94;;;30.09;76.04
36788;BME280;22738;45.560;9.434;2022-09-12T10:29:27;99864.94;;;29.71;79.75
36788;BME280;22738;45.560;9.434;2022-09-12T10:36:11;99846.63;;;29.49;85.73
36788;BME280;22738;45.560;9.434;2022-09-12T10:42:56;99841.13;;;29.44;75.53
36788;BME280;22738;45.560;9.434;2022-09-12T10:49:37;99850.91;;;29.32;78.91
36788;BME280;22738;45.560;9.434;2022-09-12T10:56:25;99837.72;;;29.06;96.82
36788;BME280;22738;45.560;9.434;2022-09-12T11:03:15;99837.22;;;28.91;86.60
36788;BME280;22738;45.560;9.434;2022-09-12T11:10:32;99833.59;;;28.79;87.69
36788;BME280;22738;45.560;9.434;2022-09-12T11:17:32;99823.09;;;28.84;90.81
36788;BME280;22738;45.560;9.434;2022-09-12T11:24:40;99822.94;;;28.79;82.17
36788;BME280;22738;45.560;9.434;2022-09-12T11:31:39;99816.28;;;28.88;83.39
36788;BME280;22738;45.560;9.434;2022-09-12T11:45:14;99808.56;;;28.80;84.11
36788;BME280;22738;45.560;9.434;2022-09-12T11:58:39;99793.91;;;28.51;78.39
36788;BME280;22738;45.560;9.434;2022-09-12T12:12:16;99782.28;;;28.01;83.56
36788;BME280;22738;45.560;9.434;2022-09-12T12:19:02;99778.97;;;28.06;87.75
36788;BME280;22738;45.560;9.434;2022-09-12T12:25:53;99762.53;;;28.15;71.51
36788;BME280;22738;45.560;9.434;2022-09-12T12:32:35;99756.19;;;28.16;67.61
36788;BME280;22738;45.560;9.434;2022-09-12T12:46:13;99752.84;;;28.27;72.46
36788;BME280;22738;45.560;9.434;2022-09-12T12:52:58;99743.47;;;28.50;75.08
36788;BME280;22738;45.560;9.434;2022-09-12T12:59:51;99734.78;;;28.61;85.41
36788;BME280;22738;45.560;9.434;2022-09-12T13:06:38;99727.34;;;28.69;78.08
36788;BME280;22738;45.560;9.434;2022-09-12T13:13:35;99719.38;;;28.63;74.40
36788;BME280;22738;45.560;9.434;2022-09-12T13:20:22;99712.44;;;28.55;64.77
36788;BME280;22738;45.560;9.434;2022-09-12T13:27:16;99708.97;;;28.55;69.39
36788;BME280;22738;45.560;9.434;2022-09-12T13:34:00;99704.03;;;28.52;76.78
36788;BME280;22738;45.560;9.434;2022-09-12T13:47:31;99683.19;;;28.73;74.08
36788;BME280;22738;45.560;9.434;2022-09-12T13:54:17;99668.19;;;28.72;62.06
36788;BME280;22738;45.560;9.434;2022-09-12T14:01:09;99652.47;;;28.58;66.39
36788;BME280;22738;45.560;9.434;2022-09-12T14:07:57;99645.00;;;28.48;69.75
36788;BME280;22738;45.560;9.434;2022-09-12T14:14:40;99651.09;;;28.55;70.04
36788;BME280;22738;45.560;9.434;2022-09-12T14:21:34;99641.09;;;28.75;66.08
36788;BME280;22738;45.560;9.434;2022-09-12T14:28:16;99633.16;;;28.69;61.68
36788;BME280;22738;45.560;9.434;2022-09-12T14:42:00;99623.09;;;28.89;64.33
36788;BME280;22738;45.560;9.434;2022-09-12T14:48:48;99611.81;;;28.87;64.83
36788;BME280;22738;45.560;9.434;2022-09-12T14:55:33;99603.19;;;28.85;66.27
36788;BME280;22738;45.560;9.434;2022-09-12T15:09:06;99607.66;;;28.73;64.39
36788;BME280;22738;45.560;9.434;2022-09-12T15:15:50;99595.16;;;28.67;65.80
36788;BME280;22738;45.560;9.434;2022-09-12T15:22:32;99593.19;;;28.56;66.06
36788;BME280;22738;45.560;9.434;2022-09-12T15:29:14;99595.09;;;28.49;72.61
36788;BME280;22738;45.560;9.434;2022-09-12T15:35:55;99586.50;;;28.47;67.96
36788;BME280;22738;45.560;9.434;2022-09-12T15:42:36;99583.47;;;28.43;69.47
36788;BME280;22738;45.560;9.434;2022-09-12T15:49:17;99588.88;;;28.37;71.31
36788;BME280;22738;45.560;9.434;2022-09-12T15:55:58;99584.25;;;28.25;71.32
36788;BME280;22738;45.560;9.434;2022-09-12T16:02:40;99580.34;;;28.28;70.04
36788;BME280;22738;45.560;9.434;2022-09-12T16:09:22;99574.59;;;28.24;73.72
36788;BME280;22738;45.560;9.434;2022-09-12T16:16:04;99575.31;;;28.13;71.45
36788;BME280;22738;45.560;9.434;2022-09-12T16:22:45;99570.28;;;28.05;72.21
36788;BME280;22738;45.560;9.434;2022-09-12T16:29:28;99561.66;;;27.97;73.37
36788;BME280;22738;45.560;9.434;2022-09-12T16:36:13;99569.94;;;27.89;73.24
36788;BME280;22738;45.560;9.434;2022-09-12T16:42:54;99561.81;;;27.77;71.76
36788;BME280;22738;45.560;9.434;2022-09-12T16:49:35;99559.38;;;27.69;68.91
36788;BME280;22738;45.560;9.434;2022-09-12T16:56:17;99548.41;;;27.59;72.62
36788;BME280;22738;45.560;9.434;2022-09-12T17:02:59;99543.53;;;27.49;71.89
36788;BME280;22738;45.560;9.434;2022-09-12T17:09:40;99556.06;;;27.36;73.19
36788;BME280;22738;45.560;9.434;2022-09-12T17:16:22;99553.28;;;27.18;76.69
36788;BME280;22738;45.560;9.434;2022-09-12T17:23:03;99550.91;;;26.97;81.48
36788;BME280;22738;45.560;9.434;2022-09-12T17:29:44;99558.91;;;26.90;80.64
36788;BME280;22738;45.560;9.434;2022-09-12T17:36:26;99561.41;;;26.59;88.77
36788;BME280;22738;45.560;9.434;2022-09-12T17:43:08;99553.06;;;26.03;100.00
36788;BME280;22738;45.560;9.434;2022-09-12T17:49:51;99561.97;;;25.63;100.00
36788;BME280;22738;45.560;9.434;2022-09-12T17:56:35;99561.59;;;25.18;100.00
36788;BME280;22738;45.560;9.434;2022-09-12T18:03:20;99565.94;;;24.85;100.00
36788;BME280;22738;45.560;9.434;2022-09-12T18:10:01;99570.94;;;24.46;100.00
36788;BME280;22738;45.560;9.434;2022-09-12T18:16:42;99583.97;;;24.20;100.00
36788;BME280;22738;45.560;9.434;2022-09-12T18:23:23;99588.25;;;23.99;100.00
36788;BME280;22738;45.560;9.434;2022-09-12T18:30:05;99591.97;;;23.84;100.00
36788;BME280;22738;45.560;9.434;2022-09-12T18:36:48;99603.47;;;23.76;100.00
36788;BME280;22738;45.560;9.434;2022-09-12T18:43:29;99613.16;;;23.48;100.00
36788;BME280;22738;45.560;9.434;2022-09-12T18:50:11;99616.97;;;23.31;100.00
36788;BME280;22738;45.560;9.434;2022-09-12T18:56:52;99623.28;;;23.15;100.00
36788;BME280;22738;45.560;9.434;2022-09-12T19:03:33;99626.38;;;23.04;100.00
36788;BME280;22738;45.560;9.434;2022-09-12T19:10:14;99631.69;;;22.90;100.00
36788;BME280;22738;45.560;9.434;2022-09-12T19:16:55;99639.34;;;22.85;100.00
36788;BME280;22738;45.560;9.434;2022-09-12T19:23:36;99639.41;;;22.77;100.00
36788;BME280;22738;45.560;9.434;2022-09-12T19:30:17;99647.19;;;22.55;100.00
36788;BME280;22738;45.560;9.434;2022-09-12T19:36:59;99652.19;;;22.50;100.00
36788;BME280;22738;45.560;9.434;2022-09-12T19:43:40;99652.34;;;22.26;100.00
36788;BME280;22738;45.560;9.434;2022-09-12T19:50:21;99664.34;;;22.14;100.00
36788;BME280;22738;45.560;9.434;2022-09-12T19:57:02;99664.13;;;22.24;100.00
36788;BME280;22738;45.560;9.434;2022-09-12T20:03:44;99672.06;;;22.38;100.00
36788;BME280;22738;45.560;9.434;2022-09-12T20:10:25;99682.31;;;22.41;100.00
36788;BME280;22738;45.560;9.434;2022-09-12T20:17:06;99686.66;;;22.34;100.00
36788;BME280;22738;45.560;9.434;2022-09-12T20:23:47;99685.59;;;22.21;100.00
36788;BME280;22738;45.560;9.434;2022-09-12T20:30:29;99692.38;;;22.15;100.00
36788;BME280;22738;45.560;9.434;2022-09-12T20:37:10;99703.75;;;21.93;100.00
36788;BME280;22738;45.560;9.434;2022-09-12T20:43:52;99706.69;;;21.98;100.00
36788;BME280;22738;45.560;9.434;2022-09-12T20:50:34;99710.31;;;21.97;100.00
36788;BME280;22738;45.560;9.434;2022-09-12T20:57:14;99708.56;;;21.89;100.00
36788;BME280;22738;45.560;9.434;2022-09-12T21:03:56;99705.78;;;21.75;100.00
36788;BME280;22738;45.560;9.434;2022-09-12T21:10:41;99696.19;;;21.82;100.00
36788;BME280;22738;45.560;9.434;2022-09-12T21:17:22;99703.63;;;21.86;100.00
36788;BME280;22738;45.560;9.434;2022-09-12T21:24:04;99715.03;;;21.71;100.00
36788;BME280;22738;45.560;9.434;2022-09-12T21:30:49;99710.47;;;21.57;100.00
36788;BME280;22738;45.560;9.434;2022-09-12T21:37:31;99702.25;;;21.52;100.00
36788;BME280;22738;45.560;9.434;2022-09-12T21:44:12;99703.25;;;21.51;100.00
36788;BME280;22738;45.560;9.434;2022-09-12T21:50:54;99717.25;;;21.51;100.00
36788;BME280;22738;45.560;9.434;2022-09-12T21:57:38;99705.91;;;21.43;100.00
36788;BME280;22738;45.560;9.434;2022-09-12T22:04:19;99709.19;;;21.45;100.00
36788;BME280;22738;45.560;9.434;2022-09-12T22:11:02;99709.38;;;21.43;100.00
36788;BME280;22738;45.560;9.434;2022-09-12T22:17:44;99707.88;;;21.41;100.00
36788;BME280;22738;45.560;9.434;2022-09-12T22:24:25;99712.69;;;21.37;100.00
36788;BME280;22738;45.560;9.434;2022-09-12T22:31:09;99708.91;;;21.31;100.00
36788;BME280;22738;45.560;9.434;2022-09-12T22:37:51;99709.41;;;21.27;100.00
36788;BME280;22738;45.560;9.434;2022-09-12T22:44:32;99702.66;;;21.24;100.00
36788;BME280;22738;45.560;9.434;2022-09-12T22:51:13;99703.34;;;21.18;100.00
36788;BME280;22738;45.560;9.434;2022-09-12T22:57:54;99709.63;;;21.09;100.00
36788;BME280;22738;45.560;9.434;2022-09-12T23:04:35;99722.78;;;21.01;100.00
36788;BME280;22738;45.560;9.434;2022-09-12T23:11:19;99718.34;;;20.94;100.00
36788;BME280;22738;45.560;9.434;2022-09-12T23:18:01;99716.22;;;20.81;100.00
36788;BME280;22738;45.560;9.434;2022-09-12T23:24:42;99717.22;;;20.80;100.00
36788;BME280;22738;45.560;9.434;2022-09-12T23:31:26;99714.41;;;20.74;100.00
36788;BME280;22738;45.560;9.434;2022-09-12T23:38:09;99714.09;;;20.69;100.00
36788;BME280;22738;45.560;9.434;2022-09-12T23:44:50;99710.13;;;20.65;100.00
36788;BME280;22738;45.560;9.434;2022-09-12T23:51:31;99704.03;;;20.48;100.00
36788;BME280;22738;45.560;9.434;2022-09-12T23:58:12;99708.00;;;20.44;100.00
